Huron, SD

2:48 AM CST on February 08, 2016 (GMT -0600)
Huron Regional | | Change Station
CLOSE
Current Station
Airport
Location: Huron,
Elevation: 1289 ft
Nearby Weather Stations
Active Advisory: Wind Advisory

Elev 1289 ft 44.39 °N, 98.23 °W | Updated 53 minutes ago

Overcast
Overcast
27 °F
Feels Like 12 °F
N
24
Wind Variable Wind from NNW
Gusts 36 mph

Today
High -- | Low -- °F
--% Chance of Precip.
Yesterday
High -- | Low -- °F
Precip. -- in
Pressure 30.10 in
Visibility 10.0 miles
Clouds Overcast 4300 ft
Windchill 12 °F
Dew Point 18 °F
Humidity 69%
Rainfall 0.00 in
Snow Depth Not available.
7:43 AM 5:51 PM
Waning Crescent, 0% visible
METAR KHON 080755Z AUTO 34021G31KT 10SM OVC043 M03/M08 A3005 RMK AO2 PK WND 33045/0715 SNB0657E11 SLP193 P0000 T10281078
Pressure 30.10 in
Visibility 10.0 miles
Clouds Overcast 4300 ft
Windchill 12 °F
Dew Point 18 °F
Humidity 69%
Rainfall 0.00 in
Snow Depth Not available.
7:43 AM 5:51 PM
Waning Crescent, 0% visible
METAR KHON 080755Z AUTO 34021G31KT 10SM OVC043 M03/M08 A3005 RMK AO2 PK WND 33045/0715 SNB0657E11 SLP193 P0000 T10281078

10-Day Weather Forecast

Almanac

Astronomy

Feb. 08, 2016 Rise Set
Actual Time
Civil Twilight
Nautical Twilight
Astronomical Twilight
Moon
Length of Visible Light
Length of Day
Tomorrow will be .
, % of the Moon is Illuminated

Today's Extremes

State Highs State Lows

Community

WunderPhotos

Upload Photos

1,891,412 photos uploaded!

WunderBlog® & News

Nearby

Air Quality

  Air Quality AQ Index Pollutant
Not available.

Snow Depth

Station Depth Elevation

Earthquake Activity

City Distance Mag. Time & Date
Minimum magnitude displayed is 2.5.

Coastal Water Temperatures

Place Temperature

Stations

Nearby Weather Stations

Station Location Temp. Windchill Dew Point Humidity Wind Precip. Elev Updated Type
                   

Watches & Warnings

Wind Advisory
Issued: 8:53 PM CST Feb. 7, 2016 – National Weather Service

... Wind Advisory remains in effect until noon CST Monday...

* timing... the strongest winds should occur from late morning
through early evening. Windy conditions will continue through
all of Sunday night.

* Weather conditions... sustained wind speeds between 25 and 35 mph
are likely... with gusts to 45 mph. The gusty winds will decrease
slightly later tonight into Monday.

* Snow accumulations/impacts... snow showers are expected across
the advisory area this evening. With fresh accumulations up to
around an inch... areas of blowing snow may develop and lead to
lower visibility and travel difficulties through Monday morning.

Precautionary/preparedness actions...

A Wind Advisory is issued when sustained winds are forecast to be
31 to 39 mph or gusts will range between 46 and 57 mph. Winds of
these magnitudes may cause minor property damage without extra
precautions. Motorists in high profile vehicles should use
caution until the winds subside.